Time;durP1;ratioP1;P1;durP2;ratioP2;P2;SDS_P1;SDS_P2;PMS_P1;PMS_P2;Temp;Humidity;BMP_temperature;BMP_pressure;BME280_temperature;BME280_humidity;BME280_pressure;Samples;Min_cycle;Max_cycle;Signal;HPM_P1;HPM_P2
2022/02/27 00:01:18;;;;;;;19.58;8.57;;;0.40;99.90;;;;;;5077314;28;20021;-77
2022/02/27 00:03:43;;;;;;;21.65;8.30;;;0.30;99.90;;;;;;5057015;28;20037;-76
2022/02/27 00:06:09;;;;;;;17.73;7.60;;;0.30;99.90;;;;;;5042357;28;20029;-76
2022/02/27 00:08:35;;;;;;;19.10;8.40;;;0.30;99.90;;;;;;5057214;28;20029;-76
2022/02/27 00:11:00;;;;;;;18.50;7.53;;;0.20;99.90;;;;;;5058119;28;20040;-75
2022/02/27 00:13:26;;;;;;;23.38;7.82;;;0.20;99.90;;;;;;5076556;28;20021;-75
2022/02/27 00:15:52;;;;;;;25.52;8.88;;;0.30;99.90;;;;;;5055164;28;20966;-75
2022/02/27 00:18:17;;;;;;;19.88;7.60;;;0.50;99.90;;;;;;5073228;28;20477;-76
2022/02/27 00:20:44;;;;;;;22.00;8.55;;;0.50;99.90;;;;;;5042766;28;20053;-76
2022/02/27 00:23:12;;;;;;;17.73;7.60;;;0.70;99.90;;;;;;5058910;28;20108;-76
2022/02/27 00:25:38;;;;;;;20.40;7.82;;;0.60;99.90;;;;;;5059534;28;20032;-76
2022/02/27 00:28:04;;;;;;;27.40;8.57;;;0.50;99.90;;;;;;5040775;28;20017;-76
2022/02/27 00:30:30;;;;;;;22.17;8.65;;;0.50;99.90;;;;;;5025566;28;20424;-76
2022/02/27 00:32:55;;;;;;;15.95;8.05;;;0.40;99.90;;;;;;5073633;28;20037;-76
2022/02/27 00:35:21;;;;;;;19.80;8.55;;;0.30;99.90;;;;;;5060848;28;20074;-76
2022/02/27 00:37:47;;;;;;;24.35;8.93;;;0.30;99.90;;;;;;5058600;28;20079;-76
2022/02/27 00:40:13;;;;;;;24.08;9.32;;;0.20;99.90;;;;;;5057386;28;20075;-76
2022/02/27 00:42:38;;;;;;;19.10;9.13;;;0.20;99.90;;;;;;5042660;28;20116;-76
2022/02/27 00:45:08;;;;;;;24.15;9.63;;;0.20;99.90;;;;;;5041915;28;20029;-76
2022/02/27 00:47:34;;;;;;;23.77;9.40;;;0.20;99.90;;;;;;5058368;28;22124;-76
2022/02/27 00:49:59;;;;;;;14.65;8.45;;;0.20;99.90;;;;;;5057021;28;20032;-76
2022/02/27 00:52:25;;;;;;;20.92;8.20;;;0.20;99.90;;;;;;5058827;28;20047;-76
2022/02/27 00:54:52;;;;;;;18.45;8.13;;;0.30;99.90;;;;;;5059195;28;20028;-76
2022/02/27 00:57:19;;;;;;;21.25;8.07;;;0.20;99.90;;;;;;5058811;28;20063;-76
2022/02/27 00:59:45;;;;;;;21.27;8.02;;;0.10;99.90;;;;;;5059203;28;20021;-76
2022/02/27 01:02:12;;;;;;;17.85;6.97;;;0.10;99.90;;;;;;5040713;28;20032;-76
2022/02/27 01:04:37;;;;;;;22.60;8.15;;;0.10;99.90;;;;;;5041465;28;20025;-76
2022/02/27 01:07:03;;;;;;;12.80;7.13;;;0.10;99.90;;;;;;5041390;28;20109;-76
2022/02/27 01:09:29;;;;;;;22.05;8.23;;;0.00;99.90;;;;;;5057746;28;20045;-76
2022/02/27 01:11:55;;;;;;;21.80;7.57;;;0.10;99.90;;;;;;5042230;28;20036;-76
2022/02/27 01:14:20;;;;;;;28.23;8.82;;;0.00;99.90;;;;;;5056260;28;20045;-76
2022/02/27 01:16:46;;;;;;;17.08;8.20;;;0.00;99.90;;;;;;5055930;28;20033;-76
2022/02/27 01:19:12;;;;;;;21.33;8.30;;;0.00;99.90;;;;;;5056102;28;20037;-75
2022/02/27 01:21:38;;;;;;;21.00;8.98;;;0.10;99.90;;;;;;5058622;28;21941;-76
2022/02/27 01:24:05;;;;;;;29.05;9.38;;;0.20;99.90;;;;;;5056672;28;20532;-75
2022/02/27 01:26:31;;;;;;;25.52;8.07;;;0.20;99.90;;;;;;5059450;28;20036;-75
2022/02/27 01:28:57;;;;;;;26.33;9.60;;;0.20;99.90;;;;;;5058574;28;20041;-76
2022/02/27 01:31:22;;;;;;;22.52;7.97;;;0.40;99.90;;;;;;5056434;28;20031;-77
2022/02/27 01:33:48;;;;;;;22.80;8.02;;;0.40;99.90;;;;;;5042232;28;20029;-76
2022/02/27 01:36:17;;;;;;;24.70;10.02;;;0.40;99.90;;;;;;5041208;28;20046;-76
2022/02/27 01:38:44;;;;;;;22.17;8.68;;;0.40;99.90;;;;;;5024713;28;20033;-76
2022/02/27 01:41:10;;;;;;;21.77;8.55;;;0.40;99.90;;;;;;5068230;28;20485;-76
2022/02/27 01:43:35;;;;;;;17.60;7.43;;;0.50;99.90;;;;;;5041318;28;20043;-76
2022/02/27 01:46:01;;;;;;;22.73;9.55;;;0.50;99.90;;;;;;5056099;28;20546;-76
2022/02/27 01:48:27;;;;;;;19.77;7.75;;;0.50;99.90;;;;;;5057692;28;20040;-76
2022/02/27 01:50:52;;;;;;;16.10;6.60;;;0.60;99.90;;;;;;5023365;28;20049;-76
2022/02/27 01:53:18;;;;;;;16.80;7.85;;;0.60;99.90;;;;;;5073114;28;20036;-76
2022/02/27 01:55:45;;;;;;;19.67;7.32;;;0.60;99.90;;;;;;5058638;28;20080;-76
2022/02/27 01:58:11;;;;;;;19.02;7.65;;;0.60;99.90;;;;;;5056950;28;20021;-76
2022/02/27 02:00:37;;;;;;;16.98;7.63;;;0.60;99.90;;;;;;5056491;28;20043;-76
2022/02/27 02:03:03;;;;;;;18.23;6.55;;;0.70;99.90;;;;;;5025956;28;20028;-76
2022/02/27 02:05:29;;;;;;;22.48;7.13;;;0.60;99.90;;;;;;5039219;28;20048;-77
2022/02/27 02:07:54;;;;;;;16.35;6.90;;;0.50;99.90;;;;;;5057315;28;20056;-77
2022/02/27 02:10:20;;;;;;;18.73;6.88;;;0.70;99.90;;;;;;5039146;28;20064;-76
2022/02/27 02:12:46;;;;;;;24.45;7.15;;;0.70;99.90;;;;;;5038820;28;20044;-77
2022/02/27 02:15:12;;;;;;;22.02;6.78;;;0.80;99.90;;;;;;5036721;28;20021;-76
2022/02/27 02:17:38;;;;;;;20.83;6.75;;;0.80;99.90;;;;;;5054563;28;20025;-76
2022/02/27 02:20:06;;;;;;;19.58;6.45;;;0.80;99.90;;;;;;5040316;28;20041;-76
2022/02/27 02:22:31;;;;;;;23.55;7.07;;;0.70;99.90;;;;;;5056808;28;20048;-75
2022/02/27 02:24:57;;;;;;;22.95;7.10;;;0.70;99.90;;;;;;5057827;28;20063;-76
2022/02/27 02:27:23;;;;;;;21.90;6.55;;;0.70;99.90;;;;;;5022270;28;20025;-76
2022/02/27 02:29:49;;;;;;;21.98;6.68;;;0.70;99.90;;;;;;5056889;28;20041;-76
2022/02/27 02:32:14;;;;;;;18.85;7.15;;;0.80;99.90;;;;;;5055872;28;20033;-76
2022/02/27 02:34:40;;;;;;;17.75;7.15;;;0.90;99.90;;;;;;5065247;28;20525;-76
2022/02/27 02:37:09;;;;;;;19.08;6.72;;;0.90;99.90;;;;;;5055499;28;20059;-76
2022/02/27 02:39:34;;;;;;;17.85;6.40;;;0.90;99.90;;;;;;5057544;28;20029;-76
2022/02/27 02:42:00;;;;;;;19.33;6.93;;;0.90;99.90;;;;;;5040140;28;20059;-76
2022/02/27 02:44:26;;;;;;;16.13;7.25;;;1.00;99.90;;;;;;5071525;28;20048;-75
2022/02/27 02:46:52;;;;;;;18.40;6.57;;;1.20;99.90;;;;;;5055934;28;20096;-76
2022/02/27 02:49:18;;;;;;;20.52;7.28;;;1.20;99.90;;;;;;5039133;28;20068;-76
2022/02/27 02:51:46;;;;;;;18.83;6.90;;;1.20;99.90;;;;;;5057317;28;20048;-76
2022/02/27 02:54:12;;;;;;;18.90;7.13;;;1.20;99.90;;;;;;5055880;28;20083;-76
2022/02/27 02:56:38;;;;;;;15.90;6.65;;;1.20;99.90;;;;;;5038898;28;20457;-76
2022/02/27 02:59:04;;;;;;;19.02;7.20;;;1.20;99.90;;;;;;5054971;28;20040;-76
2022/02/27 03:01:31;;;;;;;22.13;6.72;;;1.10;99.90;;;;;;5055214;28;20514;-76
2022/02/27 03:03:57;;;;;;;20.40;7.20;;;1.20;99.90;;;;;;5023707;28;20036;-76
2022/02/27 03:06:23;;;;;;;25.35;7.60;;;1.20;99.90;;;;;;5054572;28;20066;-76
2022/02/27 03:08:50;;;;;;;20.67;7.53;;;1.20;99.90;;;;;;5056713;28;20049;-76
2022/02/27 03:11:18;;;;;;;19.48;6.45;;;1.20;99.90;;;;;;5056572;28;20025;-76
2022/02/27 03:13:44;;;;;;;16.25;6.63;;;1.10;99.90;;;;;;5055165;28;20056;-76
2022/02/27 03:16:11;;;;;;;17.27;6.75;;;1.10;99.90;;;;;;5055258;28;20040;-76
2022/02/27 03:18:36;;;;;;;21.88;7.30;;;1.00;99.90;;;;;;5055819;28;20024;-76
2022/02/27 03:21:05;;;;;;;21.08;7.68;;;1.10;99.90;;;;;;5023726;28;20045;-76
2022/02/27 03:23:31;;;;;;;18.45;6.63;;;1.10;99.90;;;;;;5056896;28;20032;-76
2022/02/27 03:25:57;;;;;;;16.42;7.18;;;0.90;99.90;;;;;;5039670;28;20018;-76
2022/02/27 03:28:26;;;;;;;19.35;7.63;;;0.90;99.90;;;;;;5056329;28;20064;-80
2022/02/27 03:30:53;;;;;;;19.25;6.95;;;0.90;99.90;;;;;;5056579;28;20078;-77
2022/02/27 03:33:18;;;;;;;14.00;6.55;;;0.80;99.90;;;;;;5072824;28;20036;-77
2022/02/27 03:35:44;;;;;;;21.08;7.53;;;0.90;99.90;;;;;;5077426;28;20033;-76
2022/02/27 03:38:10;;;;;;;19.15;7.05;;;0.90;99.90;;;;;;5060628;28;20021;-76
2022/02/27 03:40:36;;;;;;;20.10;8.18;;;0.90;99.90;;;;;;5058963;28;20370;-76
2022/02/27 03:43:02;;;;;;;22.85;7.40;;;0.90;99.90;;;;;;5059120;28;20033;-77
2022/02/27 03:45:28;;;;;;;21.00;7.10;;;0.90;99.90;;;;;;5041671;28;20021;-76
2022/02/27 03:47:54;;;;;;;20.05;7.00;;;1.00;99.90;;;;;;5060262;28;20047;-77
2022/02/27 03:50:21;;;;;;;17.52;7.30;;;0.80;99.90;;;;;;5061183;28;20033;-76
2022/02/27 03:52:47;;;;;;;15.98;7.18;;;0.80;99.90;;;;;;5043046;28;20112;-76
2022/02/27 03:55:14;;;;;;;20.67;6.80;;;0.70;99.90;;;;;;5058654;28;20025;-76
2022/02/27 03:57:40;;;;;;;21.10;7.25;;;0.70;99.90;;;;;;5054453;28;20029;-76
2022/02/27 04:00:13;;;;;;;20.70;6.72;;;0.70;99.90;;;;;;5058918;28;20025;-76
2022/02/27 04:02:45;;;;;;;18.33;7.13;;;0.60;99.90;;;;;;5059449;28;20265;-76
2022/02/27 04:05:11;;;;;;;20.63;7.43;;;0.60;99.90;;;;;;5059798;28;20036;-76
2022/02/27 04:07:37;;;;;;;24.67;7.03;;;0.50;99.90;;;;;;5058987;28;20048;-77
2022/02/27 04:10:03;;;;;;;19.50;7.15;;;0.60;99.90;;;;;;5055703;28;20037;-77
2022/02/27 04:12:29;;;;;;;15.18;6.65;;;0.60;99.90;;;;;;5061214;28;20051;-76
2022/02/27 04:14:54;;;;;;;19.48;7.35;;;0.60;99.90;;;;;;5054913;28;20033;-77
2022/02/27 04:17:20;;;;;;;19.02;7.30;;;0.60;99.90;;;;;;5040877;28;20017;-77
2022/02/27 04:19:46;;;;;;;19.88;7.28;;;0.60;99.90;;;;;;5042151;28;20513;-77
2022/02/27 04:22:11;;;;;;;18.88;6.78;;;0.50;99.90;;;;;;5058792;28;20032;-77
2022/02/27 04:24:37;;;;;;;14.60;6.35;;;0.60;99.90;;;;;;5061393;28;20025;-76
2022/02/27 04:27:03;;;;;;;16.63;7.28;;;0.50;99.90;;;;;;5042069;28;20455;-76
2022/02/27 04:29:28;;;;;;;21.50;7.68;;;0.60;99.90;;;;;;5061930;28;20055;-77
2022/02/27 04:31:54;;;;;;;27.17;7.57;;;0.50;99.90;;;;;;5058475;28;20067;-77
2022/02/27 04:34:20;;;;;;;18.75;7.80;;;0.50;99.90;;;;;;5042830;28;20481;-77
2022/02/27 04:36:45;;;;;;;22.45;7.80;;;0.50;99.90;;;;;;5074517;28;20456;-76
2022/02/27 04:39:11;;;;;;;18.52;6.88;;;0.60;99.90;;;;;;5056826;28;20037;-77
2022/02/27 04:41:37;;;;;;;24.45;8.50;;;0.50;99.90;;;;;;5059091;28;20052;-76
2022/02/27 04:44:03;;;;;;;19.42;7.40;;;0.50;99.90;;;;;;5039309;28;20581;-76
2022/02/27 04:46:28;;;;;;;24.13;7.28;;;0.50;99.90;;;;;;5075798;28;20096;-76
2022/02/27 04:48:54;;;;;;;23.40;8.00;;;0.50;99.90;;;;;;5056432;28;20033;-76
2022/02/27 04:51:19;;;;;;;17.85;7.53;;;0.50;99.90;;;;;;5058000;28;20021;-76
2022/02/27 04:53:47;;;;;;;20.00;8.00;;;0.40;99.90;;;;;;5057371;28;20107;-76
2022/02/27 04:56:12;;;;;;;22.13;7.75;;;0.40;99.90;;;;;;5060897;28;20392;-76
2022/02/27 04:58:41;;;;;;;20.15;7.55;;;0.40;99.90;;;;;;5057747;28;20096;-76
2022/02/27 05:01:07;;;;;;;19.35;8.07;;;0.40;99.90;;;;;;5054388;28;20501;-79
2022/02/27 05:03:33;;;;;;;17.77;6.88;;;0.40;99.90;;;;;;5057402;28;20033;-80
2022/02/27 05:05:59;;;;;;;18.52;7.40;;;0.30;99.90;;;;;;5058131;28;20017;-76
2022/02/27 05:08:24;;;;;;;24.00;8.57;;;0.40;99.90;;;;;;5059930;28;20052;-76
2022/02/27 05:10:50;;;;;;;23.70;7.70;;;0.30;99.90;;;;;;5059392;28;20041;-76
2022/02/27 05:13:16;;;;;;;22.95;6.60;;;0.20;99.90;;;;;;5058150;28;20036;-76
2022/02/27 05:15:41;;;;;;;15.48;6.82;;;0.20;99.90;;;;;;5055926;28;20095;-76
2022/02/27 05:18:07;;;;;;;21.23;7.60;;;0.10;99.90;;;;;;5041453;28;20025;-76
2022/02/27 05:20:32;;;;;;;21.08;7.40;;;0.10;99.90;;;;;;5021706;28;20057;-76
2022/02/27 05:22:58;;;;;;;23.77;7.68;;;0.10;99.90;;;;;;5025354;28;20024;-77
2022/02/27 05:25:24;;;;;;;18.13;8.07;;;0.00;99.90;;;;;;5024437;28;20071;-76
2022/02/27 05:27:52;;;;;;;16.83;7.95;;;0.10;99.90;;;;;;5040984;28;20021;-76
2022/02/27 05:30:19;;;;;;;21.75;8.35;;;0.20;99.90;;;;;;5058288;28;20033;-76
2022/02/27 05:32:48;;;;;;;18.08;7.45;;;0.20;99.90;;;;;;5056360;28;20103;-76
2022/02/27 05:35:14;;;;;;;18.75;7.80;;;0.20;99.90;;;;;;5057373;28;20393;-76
2022/02/27 05:37:40;;;;;;;24.50;7.85;;;0.30;99.90;;;;;;5041173;28;20179;-76
2022/02/27 05:40:07;;;;;;;21.92;7.68;;;0.40;99.90;;;;;;5055133;28;20029;-76
2022/02/27 05:42:33;;;;;;;21.33;8.23;;;0.40;99.90;;;;;;5056684;28;20025;-76
2022/02/27 05:44:59;;;;;;;18.95;7.47;;;0.40;99.90;;;;;;5056493;28;20036;-76
2022/02/27 05:47:25;;;;;;;21.00;7.65;;;0.40;99.90;;;;;;5056008;28;20033;-75
2022/02/27 05:49:51;;;;;;;18.60;8.20;;;0.30;99.90;;;;;;5057791;28;20041;-76
2022/02/27 05:52:17;;;;;;;22.90;7.50;;;0.40;99.90;;;;;;5058432;28;20029;-75
2022/02/27 05:54:43;;;;;;;21.10;7.55;;;0.30;99.90;;;;;;5040949;28;20036;-76
2022/02/27 05:57:09;;;;;;;18.77;7.65;;;0.40;99.90;;;;;;5057041;28;20554;-76
2022/02/27 05:59:34;;;;;;;28.90;8.57;;;0.50;99.90;;;;;;5041470;28;20048;-76
2022/02/27 06:02:00;;;;;;;18.25;7.60;;;0.40;99.90;;;;;;5039521;28;20036;-76
2022/02/27 06:04:26;;;;;;;21.42;7.63;;;0.30;99.90;;;;;;5056911;28;20032;-76
2022/02/27 06:06:51;;;;;;;21.80;7.72;;;0.30;99.90;;;;;;5055682;28;20057;-76
2022/02/27 06:09:17;;;;;;;18.83;7.57;;;0.40;99.90;;;;;;5040896;28;20060;-77
2022/02/27 06:11:42;;;;;;;21.42;7.32;;;0.40;99.90;;;;;;5025326;28;20036;-76
2022/02/27 06:14:08;;;;;;;17.50;7.13;;;0.40;99.90;;;;;;5022091;28;20033;-76
2022/02/27 06:16:34;;;;;;;15.45;7.03;;;0.30;99.90;;;;;;5070329;28;20108;-76
2022/02/27 06:19:00;;;;;;;21.02;7.50;;;0.40;99.90;;;;;;5039762;28;20033;-76
2022/02/27 06:21:25;;;;;;;20.75;7.95;;;0.30;99.90;;;;;;5057955;28;20036;-76
2022/02/27 06:23:52;;;;;;;17.30;7.45;;;0.30;99.90;;;;;;5053966;28;20160;-76
2022/02/27 06:26:18;;;;;;;20.30;7.15;;;0.30;99.90;;;;;;5071123;28;20035;-77
2022/02/27 06:28:44;;;;;;;19.80;7.57;;;0.40;99.90;;;;;;5057220;28;20078;-77
2022/02/27 06:31:10;;;;;;;23.05;7.57;;;0.40;99.90;;;;;;5054915;28;20029;-76
2022/02/27 06:33:36;;;;;;;24.88;7.97;;;0.50;99.90;;;;;;5037884;28;20036;-77
2022/02/27 06:36:01;;;;;;;19.67;7.78;;;0.60;99.90;;;;;;5056992;28;20043;-77
2022/02/27 06:38:27;;;;;;;17.10;7.53;;;0.60;99.90;;;;;;5055347;28;20025;-77
2022/02/27 06:40:53;;;;;;;16.80;7.95;;;0.70;99.90;;;;;;5021854;28;20025;-77
2022/02/27 06:43:19;;;;;;;24.13;7.28;;;0.70;99.90;;;;;;5048207;28;20022;-77
2022/02/27 06:45:44;;;;;;;19.90;8.18;;;0.70;99.90;;;;;;5053742;28;20037;-76
2022/02/27 06:48:10;;;;;;;16.10;7.47;;;0.70;99.90;;;;;;5057392;28;20087;-76
2022/02/27 06:50:35;;;;;;;19.35;7.57;;;0.70;99.90;;;;;;5038945;28;20033;-76
2022/02/27 06:53:01;;;;;;;19.50;7.85;;;0.70;99.90;;;;;;5054795;28;20025;-76
2022/02/27 06:55:27;;;;;;;17.92;7.30;;;0.80;99.90;;;;;;5053538;28;20064;-76
2022/02/27 06:57:53;;;;;;;15.32;6.88;;;0.80;99.90;;;;;;5051304;28;20036;-76
2022/02/27 07:00:19;;;;;;;22.80;8.82;;;0.80;99.90;;;;;;5055801;28;20082;-76
2022/02/27 07:02:46;;;;;;;21.70;8.63;;;0.90;99.90;;;;;;5055306;28;20025;-77
2022/02/27 07:05:12;;;;;;;15.13;7.50;;;0.90;99.90;;;;;;5054064;28;20031;-77
2022/02/27 07:07:38;;;;;;;23.95;8.32;;;0.90;99.90;;;;;;5059468;28;20108;-76
2022/02/27 07:10:05;;;;;;;22.10;7.90;;;0.90;99.90;;;;;;5040796;28;20072;-76
2022/02/27 07:12:34;;;;;;;21.27;7.50;;;0.90;99.90;;;;;;5056775;28;20032;-76
2022/02/27 07:15:00;;;;;;;25.90;9.05;;;0.90;99.90;;;;;;5051290;28;20028;-75
2022/02/27 07:17:27;;;;;;;17.95;7.25;;;1.10;99.90;;;;;;5054672;28;20037;-75
2022/02/27 07:19:53;;;;;;;21.92;8.32;;;1.00;99.90;;;;;;5058910;28;20045;-75
2022/02/27 07:22:19;;;;;;;19.85;7.45;;;1.00;99.90;;;;;;5070829;28;20047;-76
2022/02/27 07:24:46;;;;;;;17.42;7.20;;;1.00;99.90;;;;;;5056054;28;20048;-76
2022/02/27 07:27:12;;;;;;;20.88;8.32;;;1.10;99.90;;;;;;5054692;28;20021;-76
2022/02/27 07:29:37;;;;;;;20.35;7.63;;;1.10;99.90;;;;;;5060194;28;20052;-75
2022/02/27 07:32:03;;;;;;;20.85;7.88;;;1.10;99.90;;;;;;5057198;28;20041;-75
2022/02/27 07:34:29;;;;;;;20.90;7.80;;;1.20;99.90;;;;;;5059109;28;20032;-75
2022/02/27 07:36:56;;;;;;;18.58;7.70;;;1.20;99.90;;;;;;5054848;28;20048;-75
2022/02/27 07:39:25;;;;;;;18.33;7.43;;;1.30;99.90;;;;;;5071624;28;20045;-75
2022/02/27 07:41:52;;;;;;;20.10;7.95;;;1.30;99.90;;;;;;5059732;28;20033;-79
2022/02/27 07:44:18;;;;;;;21.88;8.05;;;1.40;99.90;;;;;;5056238;28;20040;-79
2022/02/27 07:46:44;;;;;;;17.33;7.93;;;1.40;99.90;;;;;;5055833;28;20025;-78
2022/02/27 07:49:10;;;;;;;20.30;8.30;;;1.50;99.90;;;;;;5057669;28;20045;-77
2022/02/27 07:51:36;;;;;;;20.90;7.57;;;1.50;99.90;;;;;;5058078;28;20036;-76
2022/02/27 07:54:02;;;;;;;16.77;7.60;;;1.60;99.90;;;;;;5055886;28;20424;-78
2022/02/27 07:56:28;;;;;;;20.83;7.82;;;1.60;99.90;;;;;;5058159;28;20123;-75
2022/02/27 07:58:54;;;;;;;19.20;8.23;;;1.70;99.90;;;;;;5055612;28;20562;-75
2022/02/27 08:01:20;;;;;;;23.08;9.13;;;1.80;99.90;;;;;;5057016;28;20029;-74
2022/02/27 08:03:47;;;;;;;23.17;9.40;;;1.80;99.90;;;;;;5049196;28;20111;-76
2022/02/27 08:06:12;;;;;;;19.65;7.90;;;2.00;99.90;;;;;;5055793;28;20105;-76
2022/02/27 08:08:39;;;;;;;21.80;8.48;;;2.10;99.90;;;;;;5056196;28;20033;-76
2022/02/27 08:11:08;;;;;;;23.83;8.15;;;2.00;99.90;;;;;;5051765;28;20081;-78
2022/02/27 08:13:34;;;;;;;18.02;8.40;;;2.10;99.90;;;;;;5038992;28;20035;-76
2022/02/27 08:16:00;;;;;;;23.52;9.30;;;2.10;99.90;;;;;;5073569;28;20025;-76
2022/02/27 08:18:28;;;;;;;19.70;8.30;;;2.00;99.90;;;;;;5051994;28;20093;-75
2022/02/27 08:20:54;;;;;;;19.65;8.45;;;2.20;99.90;;;;;;5057979;28;20029;-75
2022/02/27 08:23:20;;;;;;;20.95;8.23;;;2.20;99.90;;;;;;5072867;28;20075;-76
2022/02/27 08:25:46;;;;;;;21.85;8.32;;;2.30;99.90;;;;;;5056910;28;20032;-76
2022/02/27 08:28:11;;;;;;;20.55;8.35;;;2.30;99.90;;;;;;5069760;28;20043;-76
2022/02/27 08:30:37;;;;;;;19.63;8.98;;;2.50;99.90;;;;;;5058076;28;20068;-76
2022/02/27 08:33:03;;;;;;;24.25;8.70;;;2.50;99.90;;;;;;5057626;28;20059;-75
2022/02/27 08:35:29;;;;;;;22.40;8.63;;;2.60;99.90;;;;;;5053276;28;20146;-75
2022/02/27 08:37:54;;;;;;;20.55;9.35;;;2.60;99.90;;;;;;5057787;28;20025;-75
2022/02/27 08:40:20;;;;;;;20.75;8.30;;;2.60;99.90;;;;;;5056613;28;20475;-76
2022/02/27 08:42:51;;;;;;;17.52;8.30;;;2.60;99.90;;;;;;5070807;28;20017;-77
2022/02/27 08:45:17;;;;;;;18.05;8.50;;;2.80;99.90;;;;;;5053650;28;20029;-76
2022/02/27 08:47:42;;;;;;;17.08;8.18;;;2.90;99.90;;;;;;5069906;28;20086;-75
2022/02/27 08:50:08;;;;;;;22.88;8.13;;;3.00;99.90;;;;;;5059174;28;20072;-75
2022/02/27 08:52:34;;;;;;;18.88;7.13;;;3.10;99.90;;;;;;5055758;28;20048;-76
2022/02/27 08:55:00;;;;;;;24.13;9.18;;;3.00;99.90;;;;;;5059465;28;20025;-75
2022/02/27 08:57:25;;;;;;;17.80;8.10;;;3.20;99.90;;;;;;5057774;28;20037;-76
2022/02/27 08:59:51;;;;;;;17.40;7.75;;;3.10;99.90;;;;;;5056451;28;20029;-75
2022/02/27 09:02:17;;;;;;;19.23;8.07;;;3.20;99.90;;;;;;5054531;28;20043;-76
2022/02/27 09:04:44;;;;;;;16.40;7.53;;;3.30;99.90;;;;;;5055884;28;20047;-75
2022/02/27 09:07:10;;;;;;;15.25;7.40;;;3.40;99.90;;;;;;5057109;28;20044;-75
2022/02/27 09:09:35;;;;;;;18.70;7.60;;;3.40;99.90;;;;;;5055874;28;20028;-75
2022/02/27 09:12:06;;;;;;;16.98;7.90;;;3.50;99.90;;;;;;5069581;28;20074;-75
2022/02/27 09:14:33;;;;;;;18.02;8.05;;;3.60;99.90;;;;;;5057733;28;20090;-75
2022/02/27 09:16:59;;;;;;;18.65;7.70;;;3.70;99.90;;;;;;5057946;28;20043;-75
2022/02/27 09:19:25;;;;;;;19.05;7.50;;;3.70;99.90;;;;;;5074254;28;20056;-76
2022/02/27 09:21:50;;;;;;;20.67;6.80;;;3.80;99.90;;;;;;5054842;28;20036;-75
2022/02/27 09:24:16;;;;;;;17.17;7.60;;;3.90;99.90;;;;;;5057164;28;20032;-75
2022/02/27 09:26:45;;;;;;;15.63;7.00;;;4.00;99.90;;;;;;5055382;28;20093;-75
2022/02/27 09:29:11;;;;;;;13.15;6.80;;;4.10;99.90;;;;;;5054422;28;20049;-76
2022/02/27 09:31:37;;;;;;;16.85;7.00;;;4.30;99.90;;;;;;5053779;28;20076;-75
2022/02/27 09:34:02;;;;;;;16.50;7.22;;;4.40;99.90;;;;;;5055049;28;20211;-76
2022/02/27 09:36:28;;;;;;;15.15;7.57;;;4.50;99.90;;;;;;5062275;28;20120;-75
2022/02/27 09:38:54;;;;;;;20.73;7.40;;;4.70;99.90;;;;;;5061018;28;20033;-75
2022/02/27 09:41:21;;;;;;;18.00;7.47;;;4.80;99.90;;;;;;5080559;28;20040;-75
2022/02/27 09:43:52;;;;;;;16.80;7.15;;;5.10;99.90;;;;;;5051777;28;20040;-75
2022/02/27 09:46:20;;;;;;;15.77;6.85;;;5.20;99.90;;;;;;5057366;28;20040;-75
2022/02/27 09:48:46;;;;;;;17.70;7.50;;;5.50;99.90;;;;;;5061097;28;20032;-75
2022/02/27 09:51:12;;;;;;;16.95;7.00;;;5.70;99.90;;;;;;5037709;28;20085;-76
2022/02/27 09:53:38;;;;;;;15.40;6.47;;;6.00;99.90;;;;;;5037310;28;20033;-76
2022/02/27 09:56:04;;;;;;;14.00;6.95;;;6.10;99.90;;;;;;5071288;28;20029;-75
2022/02/27 09:58:30;;;;;;;18.17;6.93;;;6.40;99.90;;;;;;5049245;28;20036;-75
2022/02/27 10:00:56;;;;;;;13.18;6.70;;;6.70;99.90;;;;;;5052304;28;20358;-75
2022/02/27 10:03:27;;;;;;;18.50;6.60;;;7.90;99.90;;;;;;5053142;28;20040;-75
2022/02/27 10:06:06;;;;;;;15.90;7.30;;;9.60;99.90;;;;;;5055534;28;20027;-75
2022/02/27 10:08:43;;;;;;;14.20;6.47;;;11.50;99.90;;;;;;5056760;28;20032;-76
2022/02/27 10:11:27;;;;;;;18.15;6.45;;;12.10;91.10;;;;;;5049817;28;20032;-76
2022/02/27 10:13:55;;;;;;;14.45;6.55;;;12.60;68.40;;;;;;5053887;28;20041;-76
2022/02/27 10:16:28;;;;;;;16.48;6.53;;;12.20;66.10;;;;;;5053266;28;20032;-76
2022/02/27 10:18:55;;;;;;;16.17;6.05;;;13.40;69.40;;;;;;5053679;28;20107;-76
2022/02/27 10:21:24;;;;;;;16.25;6.20;;;13.50;66.80;;;;;;5050941;28;20045;-76
2022/02/27 10:24:08;;;;;;;13.82;5.47;;;14.70;65.60;;;;;;5054902;28;20076;-76
2022/02/27 10:26:36;;;;;;;13.52;5.43;;;15.60;60.50;;;;;;5048013;28;20051;-78
2022/02/27 10:29:11;;;;;;;12.82;5.68;;;16.00;51.50;;;;;;5053881;28;20044;-76
2022/02/27 10:31:40;;;;;;;14.40;5.93;;;16.10;53.80;;;;;;5055738;28;20045;-76
2022/02/27 10:34:23;;;;;;;14.50;6.10;;;16.70;52.30;;;;;;5054828;28;20037;-77
2022/02/27 10:36:51;;;;;;;14.32;5.70;;;17.50;52.40;;;;;;5055474;28;21558;-77
2022/02/27 10:39:28;;;;;;;11.45;5.10;;;16.60;46.90;;;;;;5050306;28;20064;-76
2022/02/27 10:41:54;;;;;;;11.10;4.97;;;17.30;49.80;;;;;;5050373;28;20021;-76
2022/02/27 10:44:23;;;;;;;13.50;5.82;;;18.10;47.00;;;;;;5033419;28;20037;-76
2022/02/27 10:47:18;;;;;;;12.70;5.53;;;17.90;46.20;;;;;;5059099;28;20029;-76
2022/02/27 10:49:45;;;;;;;12.10;5.10;;;18.30;46.00;;;;;;5056331;28;20086;-76
2022/02/27 10:52:16;;;;;;;14.35;6.60;;;17.70;44.80;;;;;;5052193;28;20119;-75
2022/02/27 10:54:44;;;;;;;11.50;5.28;;;18.50;42.10;;;;;;5056665;28;20036;-76
2022/02/27 10:57:14;;;;;;;12.63;5.95;;;17.60;44.00;;;;;;5054048;28;20025;-76
2022/02/27 10:59:40;;;;;;;16.73;6.40;;;17.70;46.90;;;;;;5071961;28;20037;-76
2022/02/27 11:02:09;;;;;;;11.32;5.45;;;18.30;45.00;;;;;;5073778;28;20029;-76
2022/02/27 11:04:36;;;;;;;16.70;7.32;;;17.80;43.20;;;;;;5057813;28;20023;-76
2022/02/27 11:07:03;;;;;;;15.10;6.70;;;18.80;44.50;;;;;;5057067;28;20132;-76
2022/02/27 11:09:30;;;;;;;12.13;4.80;;;19.20;44.80;;;;;;5073394;28;20029;-77
2022/02/27 11:11:56;;;;;;;12.00;5.10;;;17.60;41.40;;;;;;5056017;28;20090;-76
2022/02/27 11:14:22;;;;;;;12.20;6.10;;;18.40;42.70;;;;;;5054791;28;20053;-76
2022/02/27 11:16:50;;;;;;;12.07;5.50;;;19.60;44.70;;;;;;5052545;28;20037;-76
2022/02/27 11:19:18;;;;;;;11.63;5.30;;;18.60;41.10;;;;;;5067981;28;20475;-76
2022/02/27 11:21:44;;;;;;;10.57;4.82;;;18.40;41.50;;;;;;5058047;28;20037;-77
2022/02/27 11:24:11;;;;;;;11.70;4.70;;;18.20;42.50;;;;;;5058568;28;20033;-77
2022/02/27 11:26:37;;;;;;;9.88;4.38;;;18.70;42.30;;;;;;5042050;28;20024;-75
2022/02/27 11:29:06;;;;;;;13.35;5.22;;;20.10;42.90;;;;;;5073099;28;20045;-76
2022/02/27 11:31:32;;;;;;;12.73;5.55;;;18.60;38.30;;;;;;5058092;28;20025;-76
2022/02/27 11:34:17;;;;;;;11.50;4.93;;;19.10;41.20;;;;;;5054039;28;20217;-76
2022/02/27 11:36:51;;;;;;;12.52;4.55;;;18.40;39.70;;;;;;5053704;28;20048;-77
2022/02/27 11:42:02;;;;;;;10.05;4.35;;;19.00;40.40;;;;;;5058864;28;20070;-77
2022/02/27 11:44:36;;;;;;;10.30;4.47;;;20.20;40.20;;;;;;5054651;28;20143;-76
2022/02/27 11:47:03;;;;;;;12.40;4.63;;;20.90;40.20;;;;;;5037051;28;20040;-76
2022/02/27 11:49:29;;;;;;;11.57;4.15;;;19.00;35.00;;;;;;5071472;28;20045;-76
2022/02/27 11:52:07;;;;;;;24.85;5.38;;;20.90;40.50;;;;;;5055567;28;20033;-76
2022/02/27 11:54:37;;;;;;;12.15;4.25;;;21.30;37.40;;;;;;5071070;28;20244;-78
2022/02/27 11:57:13;;;;;;;8.10;4.35;;;22.10;37.20;;;;;;5051477;28;20033;-76
2022/02/27 11:59:51;;;;;;;10.32;3.92;;;21.90;34.90;;;;;;5070106;28;20581;-76
2022/02/27 12:02:29;;;;;;;10.63;4.03;;;22.80;37.70;;;;;;5054631;28;20063;-77
2022/02/27 12:04:57;;;;;;;9.98;4.20;;;22.40;36.60;;;;;;5070764;28;20029;-77
2022/02/27 12:07:24;;;;;;;9.52;4.13;;;23.00;36.80;;;;;;5054898;28;20179;-77
2022/02/27 12:09:50;;;;;;;9.48;4.03;;;21.70;33.20;;;;;;5056474;28;20037;-77
2022/02/27 12:12:38;;;;;;;9.07;4.28;;;21.40;35.10;;;;;;5057255;28;22999;-78
2022/02/27 12:15:20;;;;;;;10.98;5.00;;;21.30;35.70;;;;;;5056723;28;20079;-78
2022/02/27 12:17:56;;;;;;;12.75;4.18;;;22.20;36.80;;;;;;5057581;28;20029;-78
2022/02/27 12:20:40;;;;;;;9.23;4.07;;;20.10;35.20;;;;;;5056062;28;20463;-78
2022/02/27 12:23:11;;;;;;;9.80;3.97;;;19.00;34.30;;;;;;5072385;28;20084;-78
2022/02/27 12:25:39;;;;;;;11.18;4.18;;;20.30;36.30;;;;;;5057379;28;20029;-77
2022/02/27 12:28:09;;;;;;;10.05;4.22;;;21.30;34.70;;;;;;5056637;28;21153;-77
2022/02/27 12:30:35;;;;;;;10.07;3.83;;;21.90;35.50;;;;;;5058972;28;20075;-78
2022/02/27 12:33:10;;;;;;;10.68;4.20;;;22.10;34.30;;;;;;5056451;28;20016;-78
2022/02/27 12:35:39;;;;;;;8.50;3.85;;;23.10;36.00;;;;;;5072841;28;20029;-78
2022/02/27 12:38:07;;;;;;;15.52;3.88;;;21.50;34.00;;;;;;5054105;28;20052;-78
2022/02/27 12:40:34;;;;;;;11.93;3.38;;;21.90;33.60;;;;;;5053671;28;20028;-78
2022/02/27 12:43:08;;;;;;;8.13;3.22;;;22.40;33.80;;;;;;5055943;28;20143;-79
2022/02/27 12:45:35;;;;;;;8.63;3.38;;;19.80;31.00;;;;;;5057929;28;20039;-76
2022/02/27 12:48:12;;;;;;;9.43;3.95;;;20.30;33.90;;;;;;5049591;28;20117;-76